Time;durP1;ratioP1;P1;durP2;ratioP2;P2;SDS_P1;SDS_P2;PMS_P1;PMS_P2;Temp;Humidity;BMP_temperature;BMP_pressure;BME280_temperature;BME280_humidity;BME280_pressure;Samples;Min_cycle;Max_cycle;Signal;HPM_P1;HPM_P2
2022/10/28 00:00:46;;;;;;;0.20;0.20;;;16.00;99.90;;;;;;5092347;28;20047;-72
2022/10/28 00:03:12;;;;;;;0.20;0.20;;;16.00;99.90;;;;;;5088125;28;20411;-72
2022/10/28 00:05:37;;;;;;;0.20;0.20;;;16.00;99.90;;;;;;5090373;28;20032;-72
2022/10/28 00:08:03;;;;;;;0.20;0.20;;;16.00;99.90;;;;;;5084710;28;20040;-72
2022/10/28 00:10:29;;;;;;;0.20;0.20;;;15.90;99.90;;;;;;5072568;28;20037;-72
2022/10/28 00:12:54;;;;;;;0.20;0.20;;;15.90;99.90;;;;;;5076442;28;20039;-72
2022/10/28 00:15:20;;;;;;;0.10;0.10;;;15.90;99.90;;;;;;5089953;28;20530;-73
2022/10/28 00:17:45;;;;;;;0.20;0.20;;;15.90;99.90;;;;;;5087186;28;20051;-72
2022/10/28 00:20:11;;;;;;;0.20;0.20;;;15.90;99.90;;;;;;5083578;28;20098;-72
2022/10/28 00:22:37;;;;;;;0.15;0.15;;;16.00;99.90;;;;;;5080835;28;20487;-72
2022/10/28 00:25:03;;;;;;;0.10;0.10;;;16.00;99.90;;;;;;5090137;28;20050;-72
2022/10/28 00:27:29;;;;;;;0.10;0.10;;;15.90;99.90;;;;;;5082637;28;20044;-72
2022/10/28 00:29:55;;;;;;;0.10;0.10;;;15.90;99.90;;;;;;5082684;28;20055;-72
2022/10/28 00:32:21;;;;;;;0.10;0.10;;;15.90;99.90;;;;;;5091960;28;20044;-72
2022/10/28 00:34:47;;;;;;;0.10;0.10;;;15.80;99.90;;;;;;5104405;28;20120;-72
2022/10/28 00:37:12;;;;;;;0.20;0.20;;;15.80;99.90;;;;;;5089047;28;20069;-72
2022/10/28 00:39:38;;;;;;;0.20;0.20;;;15.80;99.90;;;;;;5071494;28;20080;-72
2022/10/28 00:42:05;;;;;;;0.20;0.20;;;15.70;99.90;;;;;;5082326;28;20483;-72
2022/10/28 00:45:02;;;;;;;0.20;0.20;;;15.80;99.90;;;;;;5078812;28;20414;-72
2022/10/28 00:47:37;;;;;;;0.20;0.20;;;15.80;99.90;;;;;;5085147;28;20044;-72
2022/10/28 00:50:25;;;;;;;0.20;0.20;;;15.90;99.90;;;;;;5086391;28;20442;-72
2022/10/28 00:52:57;;;;;;;0.17;0.17;;;15.90;99.90;;;;;;5088345;28;20055;-72
2022/10/28 00:55:24;;;;;;;0.20;0.20;;;15.90;99.90;;;;;;5079903;28;20052;-72
2022/10/28 00:57:55;;;;;;;0.20;0.20;;;15.90;99.90;;;;;;5079075;28;20506;-72
2022/10/28 01:00:23;;;;;;;0.20;0.20;;;15.90;99.90;;;;;;5089051;28;20075;-72
2022/10/28 01:02:49;;;;;;;0.20;0.20;;;15.90;99.90;;;;;;5073084;28;20048;-72
2022/10/28 01:05:19;;;;;;;0.20;0.20;;;15.90;99.90;;;;;;5089259;28;20035;-72
2022/10/28 01:07:45;;;;;;;0.20;0.20;;;15.90;99.90;;;;;;5090834;28;20135;-72
2022/10/28 01:10:12;;;;;;;0.20;0.20;;;15.90;99.90;;;;;;5090919;28;20120;-72
2022/10/28 01:13:10;;;;;;;0.15;0.15;;;15.90;99.90;;;;;;5087400;28;20040;-72
2022/10/28 01:15:51;;;;;;;0.10;0.10;;;15.80;99.90;;;;;;5090211;28;20479;-72
2022/10/28 01:18:25;;;;;;;0.20;0.20;;;15.80;99.90;;;;;;5086943;28;20081;-72
2022/10/28 01:21:05;;;;;;;0.20;0.20;;;15.70;99.90;;;;;;5082536;28;20406;-72
2022/10/28 01:23:43;;;;;;;0.20;0.20;;;15.70;99.90;;;;;;5080772;28;20047;-72
2022/10/28 01:26:27;;;;;;;0.20;0.20;;;15.60;99.90;;;;;;5081276;28;20058;-71
2022/10/28 01:29:12;;;;;;;0.20;0.20;;;15.60;99.90;;;;;;5089229;28;20403;-72
2022/10/28 01:31:55;;;;;;;0.20;0.20;;;15.70;99.90;;;;;;5088425;28;20071;-72
2022/10/28 01:34:24;;;;;;;0.20;0.20;;;15.60;99.90;;;;;;5087781;28;20520;-72
2022/10/28 01:36:56;;;;;;;0.10;0.10;;;15.60;99.90;;;;;;5075212;28;20395;-72
2022/10/28 01:39:44;;;;;;;0.10;0.10;;;15.60;99.90;;;;;;5087636;28;20052;-72
2022/10/28 01:42:31;;;;;;;0.20;0.20;;;15.60;99.90;;;;;;5088240;28;20032;-72
2022/10/28 01:45:02;;;;;;;0.20;0.20;;;15.60;99.90;;;;;;5089278;28;20528;-73
2022/10/28 01:47:43;;;;;;;0.20;0.20;;;15.60;99.90;;;;;;5086226;28;20085;-73
2022/10/28 01:50:21;;;;;;;0.20;0.20;;;15.60;99.90;;;;;;5087071;28;20544;-72
2022/10/28 01:52:50;;;;;;;0.10;0.10;;;15.60;99.90;;;;;;5087502;28;20552;-72
2022/10/28 01:55:26;;;;;;;0.20;0.20;;;15.60;99.90;;;;;;5086401;28;20119;-72
2022/10/28 01:57:55;;;;;;;0.17;0.17;;;15.60;99.90;;;;;;5066663;28;20044;-73
2022/10/28 02:00:21;;;;;;;0.20;0.20;;;15.40;99.90;;;;;;5085128;28;20044;-72
2022/10/28 02:02:49;;;;;;;0.17;0.17;;;15.50;99.90;;;;;;5087594;28;20040;-72
2022/10/28 02:05:40;;;;;;;0.20;0.20;;;15.50;99.90;;;;;;5088071;28;20413;-72
2022/10/28 02:08:17;;;;;;;0.10;0.10;;;15.50;99.90;;;;;;5073979;28;20051;-72
2022/10/28 02:11:19;;;;;;;0.20;0.20;;;15.50;99.90;;;;;;5090220;28;20044;-72
2022/10/28 02:14:00;;;;;;;0.10;0.10;;;15.40;99.90;;;;;;5086551;28;20113;-73
2022/10/28 02:16:49;;;;;;;0.20;0.20;;;15.40;99.90;;;;;;5088674;28;20075;-72
2022/10/28 02:19:33;;;;;;;0.20;0.20;;;15.30;99.90;;;;;;5081990;28;20048;-72
2022/10/28 02:22:04;;;;;;;0.17;0.17;;;15.30;99.90;;;;;;5078270;28;20048;-72
2022/10/28 02:24:58;;;;;;;0.20;0.20;;;15.30;99.90;;;;;;5086304;28;20040;-72
2022/10/28 02:27:52;;;;;;;0.20;0.20;;;15.20;99.90;;;;;;5075209;28;20129;-72
2022/10/28 02:30:27;;;;;;;0.10;0.10;;;15.20;99.90;;;;;;5087683;28;20051;-72
2022/10/28 02:33:00;;;;;;;0.20;0.20;;;15.20;99.90;;;;;;5089284;28;20051;-72
2022/10/28 02:35:30;;;;;;;0.20;0.20;;;15.10;99.90;;;;;;5087584;28;20119;-72
2022/10/28 02:37:58;;;;;;;0.20;0.20;;;15.10;99.90;;;;;;5087213;28;20399;-72
2022/10/28 02:40:29;;;;;;;0.20;0.20;;;15.10;99.90;;;;;;5091293;28;20040;-72
2022/10/28 02:43:00;;;;;;;0.20;0.20;;;15.10;99.90;;;;;;5085202;28;20048;-72
2022/10/28 02:45:31;;;;;;;0.20;0.20;;;15.00;99.90;;;;;;5092689;28;20067;-72
2022/10/28 02:48:06;;;;;;;0.10;0.10;;;15.00;99.90;;;;;;5091315;28;20071;-72
2022/10/28 02:50:35;;;;;;;0.10;0.10;;;15.00;99.90;;;;;;5087520;28;20064;-72
2022/10/28 02:53:04;;;;;;;0.20;0.20;;;14.90;99.90;;;;;;5079567;28;20043;-72
2022/10/28 02:55:36;;;;;;;0.20;0.20;;;14.90;99.90;;;;;;5091527;28;20040;-72
2022/10/28 02:58:01;;;;;;;;;;;14.90;99.90;;;;;;5082342;28;20032;-72
2022/10/28 03:00:30;;;;;;;0.20;0.20;;;14.90;99.90;;;;;;5077128;28;19928;-71
2022/10/28 03:02:55;;;;;;;0.20;0.20;;;14.90;99.90;;;;;;5085521;28;20104;-72
2022/10/28 03:05:21;;;;;;;0.20;0.20;;;14.80;99.90;;;;;;5075500;28;20506;-72
2022/10/28 03:07:47;;;;;;;0.20;0.20;;;14.80;99.90;;;;;;5092277;28;20222;-72
2022/10/28 03:10:12;;;;;;;0.10;0.10;;;14.80;99.90;;;;;;5093232;28;20544;-72
2022/10/28 03:12:38;;;;;;;0.20;0.20;;;14.80;99.90;;;;;;5085617;28;20056;-72
2022/10/28 03:15:04;;;;;;;0.17;0.17;;;14.80;99.90;;;;;;5113663;27;20048;-72
2022/10/28 03:17:32;;;;;;;0.10;0.10;;;14.70;99.90;;;;;;5083522;28;20120;-72
2022/10/28 03:19:58;;;;;;;0.10;0.10;;;14.70;99.90;;;;;;5082451;28;20074;-73
2022/10/28 03:22:23;;;;;;;0.10;0.10;;;14.70;99.90;;;;;;5090728;28;20063;-73
2022/10/28 03:24:49;;;;;;;0.20;0.20;;;14.70;99.90;;;;;;5092224;28;20035;-73
2022/10/28 03:27:15;;;;;;;0.20;0.20;;;14.70;99.90;;;;;;5089368;28;20509;-73
2022/10/28 03:29:40;;;;;;;0.20;0.20;;;14.70;99.90;;;;;;5091383;28;20062;-72
2022/10/28 03:32:06;;;;;;;0.10;0.10;;;14.60;99.90;;;;;;5090379;28;20130;-73
2022/10/28 03:34:31;;;;;;;0.10;0.10;;;14.70;99.90;;;;;;5089040;28;20036;-72
2022/10/28 03:36:57;;;;;;;0.20;0.20;;;14.60;99.90;;;;;;5090781;28;20079;-73
2022/10/28 03:39:23;;;;;;;0.20;0.20;;;14.60;99.90;;;;;;5091307;28;20919;-73
2022/10/28 03:41:48;;;;;;;0.10;0.10;;;14.60;99.90;;;;;;5091299;28;20039;-73
2022/10/28 03:44:14;;;;;;;0.20;0.20;;;14.60;99.90;;;;;;5090686;28;20076;-72
2022/10/28 03:46:39;;;;;;;0.10;0.10;;;14.60;99.90;;;;;;5091042;28;20565;-72
2022/10/28 03:49:05;;;;;;;0.20;0.20;;;14.60;99.90;;;;;;5083735;28;20483;-72
2022/10/28 03:51:31;;;;;;;0.20;0.20;;;14.60;99.90;;;;;;5076299;28;20563;-73
2022/10/28 03:53:57;;;;;;;0.10;0.10;;;14.50;99.90;;;;;;5088806;28;20093;-72
2022/10/28 03:56:22;;;;;;;0.20;0.20;;;14.50;99.90;;;;;;5094057;28;20475;-72
2022/10/28 03:58:51;;;;;;;0.20;0.20;;;14.40;99.90;;;;;;5083322;28;20131;-72
2022/10/28 04:01:16;;;;;;;0.20;0.20;;;14.50;99.90;;;;;;5118596;27;20164;-72
2022/10/28 04:03:42;;;;;;;0.10;0.10;;;14.50;99.90;;;;;;5090494;28;20049;-72
2022/10/28 04:06:09;;;;;;;0.10;0.10;;;14.50;99.90;;;;;;5092283;28;20119;-72
2022/10/28 04:08:35;;;;;;;0.20;0.20;;;14.50;99.90;;;;;;5085803;28;20071;-72
2022/10/28 04:11:01;;;;;;;0.20;0.20;;;14.50;99.90;;;;;;5072254;28;20040;-73
2022/10/28 04:13:26;;;;;;;0.20;0.20;;;14.40;99.90;;;;;;5081639;28;20390;-73
2022/10/28 04:15:52;;;;;;;0.17;0.17;;;14.40;99.90;;;;;;5091571;28;20035;-72
2022/10/28 04:18:18;;;;;;;0.17;0.17;;;14.40;99.90;;;;;;5078039;28;20079;-72
2022/10/28 04:20:45;;;;;;;0.10;0.10;;;14.40;99.90;;;;;;5090027;28;20127;-73
2022/10/28 04:23:14;;;;;;;0.10;0.10;;;14.40;99.90;;;;;;5089945;28;20051;-73
2022/10/28 04:25:40;;;;;;;0.10;0.10;;;14.40;99.90;;;;;;5092059;28;20181;-72
2022/10/28 04:28:06;;;;;;;0.20;0.20;;;14.40;99.90;;;;;;5087297;28;20075;-72
2022/10/28 04:30:31;;;;;;;0.20;0.20;;;14.40;99.90;;;;;;5088673;28;20072;-72
2022/10/28 04:32:57;;;;;;;0.10;0.10;;;14.40;99.90;;;;;;5090139;28;20040;-72
2022/10/28 04:35:23;;;;;;;0.17;0.17;;;14.40;99.90;;;;;;5088956;28;20036;-72
2022/10/28 04:37:49;;;;;;;0.20;0.20;;;14.40;99.90;;;;;;5073926;28;20040;-72
2022/10/28 04:40:14;;;;;;;0.20;0.20;;;14.30;99.90;;;;;;5089756;28;20105;-72
2022/10/28 04:42:40;;;;;;;0.10;0.10;;;14.30;99.90;;;;;;5082482;28;20805;-72
2022/10/28 04:45:07;;;;;;;0.10;0.10;;;14.30;99.90;;;;;;5084234;28;20123;-72
2022/10/28 04:47:32;;;;;;;0.10;0.10;;;14.30;99.90;;;;;;5083894;28;20043;-72
2022/10/28 04:49:58;;;;;;;0.20;0.20;;;14.30;99.90;;;;;;5086797;28;20105;-72
2022/10/28 04:52:23;;;;;;;0.17;0.17;;;14.30;99.90;;;;;;5085171;28;20123;-72
2022/10/28 04:54:49;;;;;;;0.20;0.20;;;14.20;99.90;;;;;;5088686;28;20043;-72
2022/10/28 04:57:15;;;;;;;0.20;0.20;;;14.30;99.90;;;;;;5094868;28;20059;-72
2022/10/28 04:59:40;;;;;;;0.10;0.10;;;14.20;99.90;;;;;;5078014;28;20527;-72
2022/10/28 05:02:06;;;;;;;0.10;0.10;;;14.20;99.90;;;;;;5080277;28;20051;-71
2022/10/28 05:04:32;;;;;;;0.10;0.10;;;14.20;99.90;;;;;;5084209;28;20056;-71
2022/10/28 05:06:57;;;;;;;0.20;0.20;;;14.20;99.90;;;;;;5089045;28;20048;-71
2022/10/28 05:09:23;;;;;;;0.20;0.20;;;14.10;99.90;;;;;;5088296;28;20127;-71
2022/10/28 05:11:48;;;;;;;0.20;0.20;;;14.10;99.90;;;;;;5087621;28;20519;-71
2022/10/28 05:14:14;;;;;;;0.10;0.10;;;14.10;99.90;;;;;;5074532;28;20475;-71
2022/10/28 05:16:40;;;;;;;0.10;0.10;;;14.10;99.90;;;;;;5075147;28;20054;-71
2022/10/28 05:19:05;;;;;;;0.10;0.10;;;14.10;99.90;;;;;;5081780;28;20028;-71
2022/10/28 05:21:34;;;;;;;0.10;0.10;;;14.10;99.90;;;;;;5100641;28;20055;-72
2022/10/28 05:24:00;;;;;;;0.10;0.10;;;14.10;99.90;;;;;;5095157;28;20044;-72
2022/10/28 05:26:25;;;;;;;0.10;0.10;;;14.10;99.90;;;;;;5088059;28;20079;-72
2022/10/28 05:28:51;;;;;;;0.20;0.20;;;14.10;99.90;;;;;;5087219;28;20044;-72
2022/10/28 05:31:17;;;;;;;0.20;0.20;;;14.20;99.90;;;;;;5089515;28;20113;-72
2022/10/28 05:33:43;;;;;;;0.20;0.20;;;14.10;99.90;;;;;;5087694;28;20044;-72
2022/10/28 05:36:09;;;;;;;0.10;0.10;;;14.10;99.90;;;;;;5094258;28;20188;-72
2022/10/28 05:38:34;;;;;;;0.10;0.10;;;14.10;99.90;;;;;;5087162;28;20793;-72
2022/10/28 05:41:03;;;;;;;0.10;0.10;;;14.10;99.90;;;;;;5097546;28;20036;-72
2022/10/28 05:43:28;;;;;;;0.20;0.20;;;14.10;99.90;;;;;;5087745;28;20494;-72
2022/10/28 05:45:55;;;;;;;0.17;0.17;;;14.10;99.90;;;;;;5077948;28;20113;-71
2022/10/28 05:48:21;;;;;;;0.10;0.10;;;14.20;99.90;;;;;;5088520;28;20044;-72
2022/10/28 05:50:47;;;;;;;0.20;0.20;;;14.00;99.90;;;;;;5088166;28;20567;-72
2022/10/28 05:53:13;;;;;;;0.10;0.10;;;14.00;99.90;;;;;;5087756;28;20111;-72
2022/10/28 05:55:39;;;;;;;0.10;0.10;;;14.00;99.90;;;;;;5089510;28;20070;-71
2022/10/28 05:58:04;;;;;;;0.20;0.20;;;14.00;99.90;;;;;;5088133;28;20610;-71
2022/10/28 06:00:31;;;;;;;0.13;0.13;;;13.90;99.90;;;;;;5080762;28;20137;-71
2022/10/28 06:03:09;;;;;;;0.10;0.10;;;13.90;99.90;;;;;;5088229;28;20044;-70
2022/10/28 06:05:38;;;;;;;0.13;0.13;;;13.90;99.90;;;;;;5086743;28;20085;-71
2022/10/28 06:08:04;;;;;;;0.10;0.10;;;13.80;99.90;;;;;;5085969;28;20066;-72
2022/10/28 06:10:30;;;;;;;0.15;0.15;;;13.70;99.90;;;;;;5087501;28;20067;-72
2022/10/28 06:12:56;;;;;;;0.20;0.20;;;13.70;99.90;;;;;;5087560;28;20040;-71
2022/10/28 06:15:21;;;;;;;0.20;0.20;;;13.60;99.90;;;;;;5082947;28;20051;-72
2022/10/28 06:17:48;;;;;;;0.20;0.20;;;13.70;99.90;;;;;;5088623;28;20449;-71
2022/10/28 06:20:14;;;;;;;0.10;0.10;;;13.50;99.90;;;;;;5085704;28;20040;-72
2022/10/28 06:22:48;;;;;;;0.20;0.20;;;13.50;99.90;;;;;;5088046;28;20051;-71
2022/10/28 06:25:14;;;;;;;0.20;0.20;;;13.50;99.90;;;;;;5082531;28;20036;-71
2022/10/28 06:27:40;;;;;;;0.20;0.20;;;13.50;99.90;;;;;;5078014;28;20052;-72
2022/10/28 06:30:07;;;;;;;0.10;0.10;;;13.50;99.90;;;;;;5081262;28;20052;-72
2022/10/28 06:32:33;;;;;;;0.17;0.17;;;13.50;99.90;;;;;;5081411;28;20044;-72
2022/10/28 06:34:58;;;;;;;0.10;0.10;;;13.50;99.90;;;;;;5080284;28;20123;-72
2022/10/28 06:37:24;;;;;;;0.15;0.15;;;13.50;99.90;;;;;;5074113;28;20044;-72
2022/10/28 06:39:53;;;;;;;0.17;0.17;;;13.50;99.90;;;;;;5073897;28;20060;-71
2022/10/28 06:42:18;;;;;;;0.20;0.20;;;13.40;99.90;;;;;;5072723;28;20051;-71
2022/10/28 06:44:44;;;;;;;0.13;0.13;;;13.40;99.90;;;;;;5068094;28;20045;-72
2022/10/28 06:47:10;;;;;;;0.20;0.20;;;13.40;99.90;;;;;;5110445;28;20127;-72
2022/10/28 06:49:35;;;;;;;0.20;0.20;;;13.40;99.90;;;;;;5074820;28;20415;-72
2022/10/28 06:52:01;;;;;;;0.20;0.20;;;13.40;99.90;;;;;;5084542;28;20097;-72
2022/10/28 06:54:27;;;;;;;0.20;0.20;;;13.40;99.90;;;;;;5085589;28;20626;-72
2022/10/28 06:56:52;;;;;;;0.20;0.20;;;13.50;99.90;;;;;;5087278;28;20036;-71
2022/10/28 06:59:18;;;;;;;0.10;0.10;;;13.50;99.90;;;;;;5074742;28;20044;-72
2022/10/28 07:01:44;;;;;;;0.20;0.20;;;13.50;99.90;;;;;;5072482;28;20135;-71
2022/10/28 07:04:13;;;;;;;0.20;0.20;;;13.50;99.90;;;;;;5081282;28;20089;-70
2022/10/28 07:06:39;;;;;;;0.20;0.20;;;13.40;99.90;;;;;;5086505;28;20044;-70
2022/10/28 07:09:05;;;;;;;0.20;0.20;;;13.50;99.90;;;;;;5086578;28;20475;-70
2022/10/28 07:11:31;;;;;;;0.15;0.15;;;13.50;99.90;;;;;;5081562;28;20082;-70
2022/10/28 07:13:57;;;;;;;0.10;0.10;;;13.50;99.90;;;;;;5072784;28;22016;-70
2022/10/28 07:16:23;;;;;;;0.20;0.20;;;13.50;99.90;;;;;;5073623;28;20120;-70
2022/10/28 07:18:49;;;;;;;0.10;0.10;;;13.50;99.90;;;;;;5076175;28;20044;-70
2022/10/28 07:21:17;;;;;;;0.20;0.20;;;13.50;99.90;;;;;;5081752;28;20113;-70
2022/10/28 07:23:45;;;;;;;0.15;0.15;;;13.60;99.90;;;;;;5081201;28;20028;-70
2022/10/28 07:26:10;;;;;;;0.10;0.10;;;13.50;99.90;;;;;;5073696;28;20384;-68
2022/10/28 07:28:36;;;;;;;0.20;0.20;;;13.70;99.90;;;;;;5094447;28;20048;-69
2022/10/28 07:31:02;;;;;;;0.15;0.15;;;13.60;99.90;;;;;;5083527;28;20048;-69
2022/10/28 07:33:28;;;;;;;0.10;0.10;;;13.60;99.90;;;;;;5071287;28;20055;-69
2022/10/28 07:35:54;;;;;;;0.20;0.20;;;13.70;99.90;;;;;;5113851;27;20039;-70
2022/10/28 07:38:19;;;;;;;0.10;0.10;;;13.60;99.90;;;;;;5074562;28;20040;-70
2022/10/28 07:40:45;;;;;;;0.10;0.10;;;13.80;99.90;;;;;;5104652;28;20694;-70
2022/10/28 07:43:11;;;;;;;0.20;0.20;;;13.80;99.90;;;;;;5089832;28;20044;-70
2022/10/28 07:45:37;;;;;;;0.15;0.15;;;13.90;99.90;;;;;;5089132;28;20500;-70
2022/10/28 07:48:04;;;;;;;0.20;0.20;;;13.90;99.90;;;;;;5080512;28;20048;-71
2022/10/28 07:50:29;;;;;;;0.10;0.10;;;14.00;99.90;;;;;;5087191;28;20044;-72
2022/10/28 07:52:55;;;;;;;0.10;0.10;;;14.00;99.90;;;;;;5075899;28;20132;-72
2022/10/28 07:55:20;;;;;;;0.20;0.20;;;14.10;99.90;;;;;;5074340;28;20188;-71
2022/10/28 07:57:47;;;;;;;0.13;0.13;;;14.10;99.90;;;;;;5080186;28;20036;-71
2022/10/28 08:00:13;;;;;;;0.13;0.13;;;14.20;99.90;;;;;;5073739;28;20100;-72
2022/10/28 08:02:39;;;;;;;0.20;0.20;;;14.30;99.90;;;;;;5072514;28;20094;-72
2022/10/28 08:05:05;;;;;;;0.10;0.10;;;14.40;99.90;;;;;;5072057;28;22319;-72
2022/10/28 08:07:33;;;;;;;0.10;0.10;;;14.50;99.90;;;;;;5085263;28;20052;-72
2022/10/28 08:09:59;;;;;;;0.20;0.20;;;14.60;99.90;;;;;;5092596;28;20052;-72
2022/10/28 08:12:27;;;;;;;0.15;0.15;;;14.60;99.90;;;;;;5088879;28;20061;-72
2022/10/28 08:14:53;;;;;;;0.20;0.20;;;14.70;99.90;;;;;;5119725;27;20049;-71
2022/10/28 08:17:18;;;;;;;0.17;0.17;;;14.80;99.90;;;;;;5092641;28;20046;-72
2022/10/28 08:19:44;;;;;;;0.10;0.10;;;15.00;99.90;;;;;;5094832;28;20040;-72
2022/10/28 08:22:10;;;;;;;0.20;0.20;;;15.00;99.90;;;;;;5092723;28;20036;-72
2022/10/28 08:24:35;;;;;;;0.20;0.20;;;15.20;99.90;;;;;;5089267;28;20614;-72
2022/10/28 08:27:01;;;;;;;0.20;0.20;;;15.30;99.90;;;;;;5073644;28;20055;-71
2022/10/28 08:29:26;;;;;;;0.10;0.10;;;15.50;99.90;;;;;;5069655;28;20048;-72
2022/10/28 08:31:52;;;;;;;0.10;0.10;;;15.60;99.90;;;;;;5071082;28;20098;-71
2022/10/28 08:34:18;;;;;;;0.20;0.20;;;15.70;99.90;;;;;;5081567;28;20040;-72
2022/10/28 08:36:43;;;;;;;0.10;0.10;;;15.80;99.90;;;;;;5075560;28;20437;-72
2022/10/28 08:39:09;;;;;;;0.15;0.15;;;15.80;99.90;;;;;;5083670;28;20043;-72
2022/10/28 08:41:39;;;;;;;0.20;0.20;;;15.80;99.90;;;;;;5097874;28;20040;-72
2022/10/28 08:44:49;;;;;;;0.17;0.17;;;16.20;99.90;;;;;;5080895;28;20429;-73
2022/10/28 08:47:43;;;;;;;0.20;0.20;;;16.20;99.90;;;;;;5027500;28;20508;-72
2022/10/28 08:50:15;;;;;;;0.20;0.20;;;16.30;99.90;;;;;;5023862;28;20050;-72
2022/10/28 08:52:50;;;;;;;0.10;0.10;;;16.40;99.90;;;;;;5066526;28;20442;-72
2022/10/28 08:55:19;;;;;;;0.20;0.20;;;16.50;99.90;;;;;;5110567;28;20100;-72
2022/10/28 08:57:55;;;;;;;0.20;0.20;;;16.50;99.90;;;;;;5096783;28;20048;-72
2022/10/28 09:00:26;;;;;;;0.20;0.20;;;16.60;99.90;;;;;;5080179;28;20040;-72
2022/10/28 09:03:10;;;;;;;0.20;0.20;;;16.70;99.90;;;;;;5071900;28;20391;-72
2022/10/28 09:05:37;;;;;;;0.20;0.20;;;16.70;99.90;;;;;;5082998;28;20052;-72
2022/10/28 09:08:04;;;;;;;0.13;0.13;;;16.80;99.90;;;;;;5089887;28;20103;-73
2022/10/28 09:11:00;;;;;;;0.20;0.20;;;16.90;99.90;;;;;;5090354;28;20099;-72
2022/10/28 09:13:26;;;;;;;0.20;0.20;;;17.00;99.90;;;;;;5087791;28;20472;-72
2022/10/28 09:16:18;;;;;;;0.15;0.15;;;17.10;99.90;;;;;;5088189;28;20043;-71
2022/10/28 09:18:55;;;;;;;0.20;0.20;;;17.10;99.90;;;;;;5079509;28;20080;-72
2022/10/28 09:21:32;;;;;;;0.10;0.10;;;17.20;99.90;;;;;;5087378;28;20048;-72
2022/10/28 09:24:03;;;;;;;0.20;0.20;;;17.20;99.90;;;;;;5084424;28;20487;-72
2022/10/28 09:26:31;;;;;;;;;;;17.20;99.90;;;;;;5089237;28;20101;-70
2022/10/28 09:29:15;;;;;;;0.20;0.20;;;17.20;99.90;;;;;;5089827;28;19923;-69
2022/10/28 09:31:47;;;;;;;0.20;0.20;;;17.30;99.90;;;;;;5087574;28;20032;-70
2022/10/28 09:34:24;;;;;;;0.20;0.20;;;17.30;99.90;;;;;;5088727;28;20047;-70
2022/10/28 09:37:17;;;;;;;0.17;0.17;;;17.30;99.90;;;;;;5079449;28;20047;-70
2022/10/28 09:39:46;;;;;;;0.20;0.20;;;17.30;99.90;;;;;;5110272;27;20048;-70
2022/10/28 09:42:18;;;;;;;0.13;0.13;;;17.30;99.90;;;;;;5075470;28;20483;-71
2022/10/28 09:44:53;;;;;;;0.17;0.17;;;17.40;99.90;;;;;;5083474;28;20116;-70
2022/10/28 09:47:24;;;;;;;0.20;0.20;;;17.40;99.90;;;;;;5075708;28;20044;-71
2022/10/28 09:49:52;;;;;;;0.13;0.13;;;17.50;99.90;;;;;;5074482;28;20089;-70
2022/10/28 09:52:23;;;;;;;0.20;0.20;;;17.40;99.90;;;;;;5104099;27;20051;-70
2022/10/28 09:54:53;;;;;;;0.20;0.20;;;17.40;99.90;;;;;;5069982;28;20041;-71
2022/10/28 09:57:21;;;;;;;0.20;0.20;;;17.40;99.90;;;;;;5081371;28;20433;-70
2022/10/28 09:59:46;;;;;;;0.13;0.13;;;17.50;99.90;;;;;;5083351;28;20133;-71
2022/10/28 10:02:42;;;;;;;0.10;0.10;;;17.50;99.90;;;;;;5074850;28;20094;-70
2022/10/28 10:05:14;;;;;;;0.10;0.10;;;17.60;99.90;;;;;;5058804;28;20067;-70
2022/10/28 10:07:44;;;;;;;0.20;0.20;;;17.60;99.90;;;;;;5084484;28;20391;-69
2022/10/28 10:10:16;;;;;;;0.20;0.20;;;17.60;99.90;;;;;;5087165;28;20043;-70
2022/10/28 10:12:42;;;;;;;0.20;0.20;;;17.60;99.90;;;;;;5072423;28;20044;-70
2022/10/28 10:15:17;;;;;;;0.20;0.20;;;17.70;99.90;;;;;;5072112;28;20495;-70
2022/10/28 10:17:45;;;;;;;0.20;0.20;;;17.60;99.90;;;;;;5071927;28;20033;-70
2022/10/28 10:20:19;;;;;;;0.20;0.20;;;17.70;99.90;;;;;;5073767;28;20545;-70
2022/10/28 10:22:47;;;;;;;0.20;0.20;;;17.80;99.90;;;;;;5073066;28;20074;-72
2022/10/28 10:25:19;;;;;;;0.20;0.20;;;17.90;99.90;;;;;;5070772;28;20053;-71
2022/10/28 10:28:09;;;;;;;0.20;0.20;;;17.90;99.90;;;;;;5071774;28;20063;-72
2022/10/28 10:30:39;;;;;;;0.10;0.10;;;17.90;99.90;;;;;;5074040;28;20136;-71
2022/10/28 10:33:06;;;;;;;0.20;0.20;;;18.00;99.90;;;;;;5076777;28;20119;-72
2022/10/28 10:35:34;;;;;;;0.20;0.20;;;18.00;99.90;;;;;;5068456;28;20449;-71
2022/10/28 10:38:03;;;;;;;0.20;0.20;;;18.00;99.90;;;;;;5075557;28;20032;-72
2022/10/28 10:40:49;;;;;;;0.20;0.20;;;18.10;99.90;;;;;;5084039;28;20406;-71
2022/10/28 10:43:18;;;;;;;0.20;0.20;;;18.20;99.90;;;;;;5080265;28;20113;-72
2022/10/28 10:46:13;;;;;;;0.20;0.20;;;18.30;99.90;;;;;;5082662;28;20040;-71
2022/10/28 10:48:40;;;;;;;0.20;0.20;;;18.30;99.90;;;;;;5071494;28;20036;-71
2022/10/28 10:51:20;;;;;;;0.20;0.20;;;18.40;99.90;;;;;;5089338;28;20059;-71
2022/10/28 10:53:48;;;;;;;0.20;0.20;;;18.50;99.90;;;;;;5079806;28;20446;-72
2022/10/28 10:56:26;;;;;;;0.20;0.20;;;18.50;99.90;;;;;;5086965;28;20048;-72
2022/10/28 10:58:54;;;;;;;0.20;0.20;;;18.50;99.90;;;;;;5077295;28;20044;-71
2022/10/28 11:01:23;;;;;;;0.20;0.20;;;18.60;99.90;;;;;;5076635;28;20049;-71
2022/10/28 11:03:59;;;;;;;0.20;0.20;;;18.70;99.90;;;;;;5066774;28;21376;-72
2022/10/28 11:06:48;;;;;;;0.13;0.13;;;18.70;99.90;;;;;;5105698;27;20067;-71
2022/10/28 11:09:37;;;;;;;0.20;0.20;;;18.90;99.90;;;;;;5115122;27;20051;-72
2022/10/28 11:12:21;;;;;;;0.20;0.20;;;18.90;99.90;;;;;;5094172;28;20039;-72
2022/10/28 11:15:03;;;;;;;0.20;0.20;;;18.90;99.90;;;;;;5098162;28;20046;-71
2022/10/28 11:17:31;;;;;;;0.20;0.20;;;19.00;99.90;;;;;;5071413;28;20044;-72
2022/10/28 11:20:00;;;;;;;0.20;0.20;;;19.00;99.90;;;;;;5083260;28;20063;-71
2022/10/28 11:22:38;;;;;;;0.20;0.20;;;19.10;99.90;;;;;;5092849;28;20070;-71
2022/10/28 11:25:17;;;;;;;0.20;0.20;;;19.30;99.90;;;;;;5088766;28;20106;-72
2022/10/28 11:27:50;;;;;;;0.20;0.20;;;19.30;99.90;;;;;;5075896;28;20103;-71
2022/10/28 11:30:20;;;;;;;0.20;0.20;;;19.30;99.90;;;;;;5076033;28;20631;-71
2022/10/28 11:32:56;;;;;;;0.20;0.20;;;19.30;99.90;;;;;;5074677;28;20495;-71
2022/10/28 11:35:36;;;;;;;0.20;0.20;;;19.40;99.90;;;;;;5075000;28;20059;-71
2022/10/28 11:38:20;;;;;;;0.20;0.20;;;19.40;99.90;;;;;;5077800;28;20044;-71
2022/10/28 11:41:04;;;;;;;0.20;0.20;;;19.60;99.90;;;;;;5074446;28;20048;-71
2022/10/28 11:43:45;;;;;;;0.20;0.20;;;19.80;99.90;;;;;;5073112;28;20560;-70
2022/10/28 11:46:38;;;;;;;0.20;0.20;;;19.90;99.90;;;;;;5073200;28;20044;-71
2022/10/28 11:49:28;;;;;;;0.20;0.20;;;20.00;99.90;;;;;;5075481;28;20041;-71
2022/10/28 11:52:21;;;;;;;0.30;0.30;;;20.10;99.90;;;;;;5068738;28;20052;-71
2022/10/28 11:54:53;;;;;;;0.20;0.20;;;20.20;99.90;;;;;;5076009;28;20029;-71
2022/10/28 11:57:36;;;;;;;0.20;0.20;;;20.30;99.90;;;;;;5070535;28;20609;-71
2022/10/28 12:00:33;;;;;;;0.20;0.20;;;20.40;99.90;;;;;;5073003;28;20040;-71
2022/10/28 12:03:52;;;;;;;0.20;0.20;;;20.50;99.90;;;;;;5075440;28;20049;-70
2022/10/28 12:06:56;;;;;;;0.20;0.20;;;20.70;99.90;;;;;;5070956;28;20646;-70
2022/10/28 12:09:59;;;;;;;0.20;0.20;;;20.90;99.90;;;;;;5089524;28;20056;-72
2022/10/28 12:12:38;;;;;;;0.20;0.20;;;21.10;99.90;;;;;;5078760;28;20465;-71
2022/10/28 12:15:16;;;;;;;0.20;0.20;;;21.20;99.90;;;;;;5076647;28;20048;-72
2022/10/28 12:18:00;;;;;;;0.20;0.20;;;21.40;99.90;;;;;;5074037;28;20487;-71
2022/10/28 12:20:33;;;;;;;0.20;0.20;;;21.40;99.90;;;;;;5072193;28;20044;-71
2022/10/28 12:23:09;;;;;;;0.20;0.20;;;21.40;99.90;;;;;;5108640;27;20123;-71
2022/10/28 12:25:39;;;;;;;0.20;0.20;;;21.40;99.90;;;;;;5074805;28;20078;-71
2022/10/28 12:28:32;;;;;;;0.20;0.20;;;21.30;99.90;;;;;;5107731;27;20506;-71
2022/10/28 12:30:58;;;;;;;0.20;0.20;;;21.20;99.90;;;;;;5081017;28;20071;-71
2022/10/28 12:33:24;;;;;;;0.20;0.20;;;21.00;99.90;;;;;;5090387;28;20509;-70
2022/10/28 12:36:18;;;;;;;0.20;0.20;;;20.90;99.90;;;;;;5080320;28;20040;-71
2022/10/28 12:38:54;;;;;;;0.20;0.20;;;20.80;99.90;;;;;;5073407;28;20125;-70
2022/10/28 12:41:52;;;;;;;0.20;0.20;;;20.70;99.90;;;;;;5074106;28;20043;-71
2022/10/28 12:44:20;;;;;;;0.20;0.20;;;20.60;99.90;;;;;;5073653;28;20044;-71
2022/10/28 12:47:10;;;;;;;0.20;0.20;;;20.60;99.90;;;;;;5079143;28;20032;-70
2022/10/28 12:49:48;;;;;;;0.20;0.20;;;20.40;99.90;;;;;;5071371;28;21191;-71
2022/10/28 12:52:47;;;;;;;0.20;0.20;;;20.40;99.90;;;;;;5069537;28;20032;-71
2022/10/28 12:55:19;;;;;;;0.20;0.20;;;20.30;99.90;;;;;;5078906;28;20093;-71
2022/10/28 12:58:23;;;;;;;0.20;0.20;;;20.30;99.90;;;;;;5088312;28;20051;-70
2022/10/28 13:00:59;;;;;;;0.20;0.20;;;20.20;99.90;;;;;;5043252;28;20147;-71
2022/10/28 13:03:25;;;;;;;0.20;0.20;;;20.20;99.90;;;;;;5067643;28;20056;-71
2022/10/28 13:05:57;;;;;;;0.20;0.20;;;20.10;99.90;;;;;;5072993;28;20056;-70
2022/10/28 13:08:25;;;;;;;0.20;0.20;;;20.10;99.90;;;;;;5069958;28;20047;-70
2022/10/28 13:11:01;;;;;;;0.20;0.20;;;20.10;99.90;;;;;;5105797;27;20040;-71